createdAt,value
2023-01-07T00:01:38.764Z,1.02
2023-01-07T00:04:07.598Z,1.13
2023-01-07T00:06:40.448Z,1.15
2023-01-07T00:09:11.396Z,0.70
2023-01-07T00:11:39.856Z,1.92
2023-01-07T00:14:09.572Z,1.33
2023-01-07T00:16:37.220Z,1.60
2023-01-07T00:19:05.703Z,1.30
2023-01-07T00:21:33.155Z,1.63
2023-01-07T00:24:02.224Z,1.15
2023-01-07T00:26:34.334Z,1.95
2023-01-07T00:29:01.353Z,1.23
2023-01-07T00:31:31.945Z,1.40
2023-01-07T00:33:59.406Z,1.90
2023-01-07T00:36:32.365Z,1.00
2023-01-07T00:39:05.911Z,1.45
2023-01-07T00:41:33.746Z,1.20
2023-01-07T00:44:00.758Z,1.50
2023-01-07T00:46:27.685Z,1.20
2023-01-07T00:48:54.504Z,2.60
2023-01-07T00:51:22.459Z,2.08
2023-01-07T00:53:50.274Z,1.83
2023-01-07T00:56:19.002Z,1.45
2023-01-07T00:58:46.648Z,1.10
2023-01-07T01:01:13.845Z,1.25
2023-01-07T01:03:40.837Z,1.50
2023-01-07T01:06:15.564Z,2.70
2023-01-07T01:08:45.009Z,1.48
2023-01-07T01:11:13.966Z,1.10
2023-01-07T01:13:41.505Z,1.20
2023-01-07T01:16:17.661Z,1.57
2023-01-07T01:18:45.623Z,1.20
2023-01-07T01:21:14.177Z,1.58
2023-01-07T01:23:42.772Z,1.40
2023-01-07T01:26:13.480Z,2.25
2023-01-07T01:28:40.435Z,1.33
2023-01-07T01:31:09.161Z,1.00
2023-01-07T01:33:46.463Z,2.10
2023-01-07T01:36:13.463Z,1.20
2023-01-07T01:38:41.719Z,1.45
2023-01-07T01:41:10.052Z,1.35
2023-01-07T01:43:42.024Z,1.35
2023-01-07T01:46:24.306Z,1.00
2023-01-07T01:48:56.592Z,1.63
2023-01-07T01:51:27.452Z,1.77
2023-01-07T01:53:56.039Z,0.95
2023-01-07T01:56:31.772Z,1.00
2023-01-07T01:59:05.282Z,1.35
2023-01-07T02:01:35.340Z,1.73
2023-01-07T02:04:11.825Z,1.23
2023-01-07T02:06:44.644Z,1.95
2023-01-07T02:09:13.058Z,1.45
2023-01-07T02:11:52.200Z,1.20
2023-01-07T02:14:37.685Z,1.80
2023-01-07T02:17:13.470Z,1.58
2023-01-07T02:20:07.319Z,1.33
2023-01-07T02:22:36.889Z,1.20
2023-01-07T02:25:34.481Z,1.20
2023-01-07T02:28:11.469Z,1.02
2023-01-07T02:31:12.193Z,0.90
2023-01-07T02:33:59.512Z,2.20
2023-01-07T02:36:59.642Z,2.00
2023-01-07T02:39:45.430Z,1.58
2023-01-07T02:42:26.751Z,1.40
2023-01-07T02:45:15.277Z,1.33
2023-01-07T02:47:50.343Z,1.90
2023-01-07T02:50:17.184Z,1.95
2023-01-07T02:52:45.220Z,1.60
2023-01-07T02:55:17.415Z,1.27
2023-01-07T02:58:05.788Z,1.30
2023-01-07T03:00:57.870Z,1.42
2023-01-07T03:03:58.044Z,1.67
2023-01-07T03:06:58.212Z,2.50
2023-01-07T03:10:00.786Z,2.28
2023-01-07T03:12:44.428Z,1.30
2023-01-07T03:15:19.796Z,1.80
2023-01-07T03:18:10.698Z,1.42
2023-01-07T03:20:39.202Z,1.33
2023-01-07T03:23:09.933Z,1.70
2023-01-07T03:25:42.570Z,1.73
2023-01-07T03:28:12.104Z,1.45
2023-01-07T03:30:38.997Z,1.05
2023-01-07T03:33:37.813Z,2.00
2023-01-07T03:36:09.095Z,1.77
2023-01-07T03:38:38.087Z,1.20
2023-01-07T03:41:05.082Z,1.25
2023-01-07T03:43:32.186Z,1.70
2023-01-07T03:45:59.559Z,1.52
2023-01-07T03:48:27.878Z,2.05
2023-01-07T03:50:55.535Z,1.40
2023-01-07T03:53:22.227Z,1.73
2023-01-07T03:55:51.086Z,1.70
2023-01-07T03:58:17.964Z,2.38
2023-01-07T04:00:45.429Z,1.80
2023-01-07T04:03:17.048Z,1.40
2023-01-07T04:05:46.398Z,1.60
2023-01-07T04:08:13.763Z,1.27
2023-01-07T04:10:41.584Z,1.75
2023-01-07T04:13:09.842Z,1.80
2023-01-07T04:15:37.313Z,1.75
2023-01-07T04:18:04.658Z,1.30
2023-01-07T04:20:31.486Z,2.37
2023-01-07T04:22:59.962Z,1.00
2023-01-07T04:25:26.862Z,1.38
2023-01-07T04:27:54.329Z,2.17
2023-01-07T04:30:22.105Z,1.45
2023-01-07T04:32:48.847Z,2.15
2023-01-07T04:35:15.697Z,2.08
2023-01-07T04:37:43.161Z,2.08
2023-01-07T04:40:10.824Z,1.98
2023-01-07T04:42:38.918Z,1.70
2023-01-07T04:45:08.578Z,1.80
2023-01-07T04:47:35.557Z,1.27
2023-01-07T04:50:03.307Z,1.55
2023-01-07T04:52:32.541Z,1.60
2023-01-07T04:54:59.514Z,2.13
2023-01-07T04:57:27.310Z,2.30
2023-01-07T04:59:54.256Z,1.13
2023-01-07T05:02:21.293Z,2.20
2023-01-07T05:04:48.337Z,1.70
2023-01-07T05:07:17.372Z,1.98
2023-01-07T05:09:44.776Z,1.73
2023-01-07T05:12:12.182Z,1.92
2023-01-07T05:14:38.937Z,1.40
2023-01-07T05:17:05.609Z,1.53
2023-01-07T05:19:32.651Z,1.85
2023-01-07T05:22:00.896Z,1.75
2023-01-07T05:24:28.189Z,3.17
2023-01-07T05:26:55.133Z,1.48
2023-01-07T05:29:22.667Z,1.45
2023-01-07T05:31:49.436Z,2.90
2023-01-07T05:34:16.733Z,2.10
2023-01-07T05:36:45.023Z,1.70
2023-01-07T05:39:12.173Z,1.27
2023-01-07T05:41:38.958Z,1.30
2023-01-07T05:44:06.837Z,1.40
2023-01-07T05:46:33.542Z,1.85
2023-01-07T05:49:00.306Z,1.40
2023-01-07T05:51:27.088Z,1.37
2023-01-07T05:53:53.930Z,1.48
2023-01-07T05:56:20.828Z,1.38
2023-01-07T05:58:47.555Z,1.42
2023-01-07T06:01:14.420Z,2.03
2023-01-07T06:03:41.317Z,1.92
2023-01-07T06:06:08.171Z,1.20
2023-01-07T06:08:38.790Z,1.52
2023-01-07T06:11:07.380Z,2.05
2023-01-07T06:13:34.897Z,1.80
2023-01-07T06:16:09.576Z,1.40
2023-01-07T06:18:36.610Z,0.95
2023-01-07T06:21:04.198Z,1.13
2023-01-07T06:23:31.399Z,1.90
2023-01-07T06:25:58.351Z,2.22
2023-01-07T06:28:26.112Z,1.60
2023-01-07T06:30:52.895Z,2.40
2023-01-07T06:33:19.925Z,1.08
2023-01-07T06:35:46.865Z,0.77
2023-01-07T06:38:13.755Z,1.53
2023-01-07T06:40:40.493Z,0.90
2023-01-07T06:43:07.323Z,1.50
2023-01-07T06:45:34.144Z,1.30
2023-01-07T06:48:00.896Z,1.05
2023-01-07T06:50:27.628Z,1.02
2023-01-07T06:52:54.458Z,0.90
2023-01-07T06:55:21.220Z,0.68
2023-01-07T06:57:48.047Z,1.02
2023-01-07T07:00:15.191Z,1.00
2023-01-07T07:02:42.082Z,0.80
2023-01-07T07:05:11.123Z,0.90
2023-01-07T07:07:38.001Z,1.08
2023-01-07T07:10:07.341Z,0.90
2023-01-07T07:12:35.540Z,1.05
2023-01-07T07:15:07.623Z,0.60
2023-01-07T07:17:34.616Z,0.60
2023-01-07T07:20:02.636Z,1.67
2023-01-07T07:22:30.003Z,0.90
2023-01-07T07:24:56.765Z,1.48
2023-01-07T07:27:23.511Z,0.83
2023-01-07T07:29:50.301Z,0.82
2023-01-07T07:32:17.375Z,0.85
2023-01-07T07:34:44.183Z,0.63
2023-01-07T07:37:11.308Z,1.00
2023-01-07T07:39:38.133Z,1.27
2023-01-07T07:42:05.837Z,0.88
2023-01-07T07:44:32.739Z,0.50
2023-01-07T07:46:59.491Z,0.82
2023-01-07T07:49:26.412Z,1.67
2023-01-07T07:51:53.371Z,1.27
2023-01-07T07:54:21.314Z,1.90
2023-01-07T07:56:49.915Z,1.20
2023-01-07T07:59:16.671Z,2.53
2023-01-07T08:01:43.504Z,0.52
2023-01-07T08:04:12.074Z,1.30
2023-01-07T08:06:38.833Z,2.30
2023-01-07T08:09:05.583Z,5.47
2023-01-07T08:11:33.934Z,0.93
2023-01-07T08:14:00.866Z,1.30
2023-01-07T08:16:29.403Z,0.90
2023-01-07T08:18:57.337Z,1.75
2023-01-07T08:21:24.200Z,1.30
2023-01-07T08:23:52.207Z,1.50
2023-01-07T08:26:19.048Z,2.13
2023-01-07T08:28:46.862Z,1.47
2023-01-07T08:31:13.911Z,0.93
2023-01-07T08:33:40.764Z,2.30
2023-01-07T08:36:21.554Z,3.67
2023-01-07T08:38:53.834Z,4.38
2023-01-07T08:41:22.258Z,3.40
2023-01-07T08:43:50.455Z,3.47
2023-01-07T08:46:17.712Z,5.05
2023-01-07T08:48:46.716Z,2.30
2023-01-07T08:51:13.423Z,4.28
2023-01-07T08:53:40.440Z,1.13
2023-01-07T08:56:08.713Z,2.53
2023-01-07T08:58:35.682Z,3.20
2023-01-07T09:01:05.956Z,1.75
2023-01-07T09:03:34.704Z,1.33
2023-01-07T09:06:02.525Z,1.67
2023-01-07T09:08:29.311Z,2.17
2023-01-07T09:10:57.153Z,1.50
2023-01-07T09:13:23.955Z,1.50
2023-01-07T09:15:51.050Z,1.40
2023-01-07T09:18:17.986Z,1.37
2023-01-07T09:20:44.837Z,2.47
2023-01-07T09:23:11.625Z,1.80
2023-01-07T09:25:38.401Z,1.13
2023-01-07T09:28:06.218Z,1.33
2023-01-07T09:30:33.199Z,0.70
2023-01-07T09:33:00.369Z,1.50
2023-01-07T09:35:27.783Z,1.65
2023-01-07T09:37:54.714Z,2.03
2023-01-07T09:40:36.441Z,1.50
2023-01-07T09:43:08.901Z,0.43
2023-01-07T09:45:58.644Z,1.05
2023-01-07T09:48:35.435Z,0.90
2023-01-07T09:51:13.738Z,1.17
2023-01-07T09:53:48.390Z,0.70
2023-01-07T09:56:23.753Z,0.70
2023-01-07T09:58:51.246Z,0.77
2023-01-07T10:01:28.484Z,1.95
2023-01-07T10:04:24.868Z,1.27
2023-01-07T10:07:34.268Z,1.27
2023-01-07T10:10:38.694Z,1.30
2023-01-07T10:13:37.610Z,1.20
2023-01-07T10:16:20.549Z,1.10
2023-01-07T10:19:13.303Z,1.00
2023-01-07T10:22:03.239Z,1.02
2023-01-07T10:24:38.065Z,1.77
2023-01-07T10:27:09.961Z,0.82
2023-01-07T10:29:50.855Z,1.50
2023-01-07T10:32:21.591Z,0.65
2023-01-07T10:34:51.180Z,0.98
2023-01-07T10:37:27.264Z,0.70
2023-01-07T10:40:12.612Z,1.25
2023-01-07T10:43:01.039Z,1.02
2023-01-07T10:45:55.031Z,0.63
2023-01-07T10:48:24.902Z,1.65
2023-01-07T10:51:10.255Z,0.80
2023-01-07T10:54:14.643Z,1.10
2023-01-07T10:56:51.054Z,1.02
2023-01-07T10:59:20.627Z,1.23
2023-01-07T11:01:57.943Z,0.90
2023-01-07T11:04:26.776Z,0.85
2023-01-07T11:07:28.127Z,1.17
2023-01-07T11:09:57.174Z,0.88
2023-01-07T11:12:38.440Z,1.63
2023-01-07T11:15:13.572Z,1.40
2023-01-07T11:17:56.504Z,2.22
2023-01-07T11:20:46.462Z,0.70
2023-01-07T11:23:41.341Z,0.70
2023-01-07T11:26:27.424Z,1.10
2023-01-07T11:28:56.122Z,0.70
2023-01-07T11:31:43.504Z,0.93
2023-01-07T11:34:37.910Z,1.10
2023-01-07T11:37:05.545Z,1.00
2023-01-07T11:39:34.988Z,0.90
2023-01-07T11:42:36.086Z,1.20
2023-01-07T11:45:33.013Z,0.73
2023-01-07T11:48:05.982Z,0.90
2023-01-07T11:50:40.870Z,0.90
2023-01-07T11:53:23.005Z,1.70
2023-01-07T11:56:04.336Z,2.05
2023-01-07T11:58:38.150Z,0.90
2023-01-07T12:01:07.987Z,1.60
2023-01-07T12:03:40.692Z,1.08
2023-01-07T12:06:29.086Z,1.70
2023-01-07T12:09:03.919Z,0.85
2023-01-07T12:11:36.520Z,1.70
2023-01-07T12:14:28.318Z,1.53
2023-01-07T12:17:05.405Z,1.27
2023-01-07T12:20:10.811Z,1.20
2023-01-07T12:22:58.447Z,1.20
2023-01-07T12:25:45.498Z,1.35
2023-01-07T12:28:16.486Z,1.02
2023-01-07T12:31:11.616Z,0.90
2023-01-07T12:34:03.998Z,1.92
2023-01-07T12:36:50.035Z,1.30
2023-01-07T12:39:25.777Z,1.00
2023-01-07T12:42:01.359Z,1.30
2023-01-07T12:44:28.228Z,2.70
2023-01-07T12:47:31.180Z,1.55
2023-01-07T12:50:11.813Z,1.85
2023-01-07T12:52:47.939Z,1.30
2023-01-07T12:55:22.167Z,1.65
2023-01-07T12:58:17.967Z,1.60
2023-01-07T13:01:07.576Z,1.55
2023-01-07T13:03:53.229Z,7.50
2023-01-07T13:06:44.585Z,7.63
2023-01-07T13:09:26.408Z,6.88
2023-01-07T13:12:40.582Z,10.43
2023-01-07T13:15:17.057Z,6.82
2023-01-07T13:17:44.207Z,7.38
2023-01-07T13:20:18.349Z,6.95
2023-01-07T13:25:32.773Z,9.10
